Terminal Aerodrome Forecast
Issued by NWS

Home | Current Version | Previous Version | Text Only | Print | Product List | Glossary On
Versions: 1 2 3 4 5 6 7 8 9 10 11 12 13 14
000
FTUS42 TJSJ 271700
TAFJBQ
TAF
TJBQ 271720Z 2718/2818 VRB06KT P6SM VCSH SCT025 BKN070 OVC120
      TEMPO 2718/2721 5SM -SHRA BKN025
     FM272330 15005KT P6SM FEW050
     FM281400 08013KT P6SM SCT025
      AMD NOT SKED 2802/2811=

USA.gov is the U.S. government's official web portal to all federal, state and local government web resources and services.